Flight Track Log - Related Links

Times and Time Zones

All times are in EDT time to prevent confusion due to time zone crossing. See the RPA4937 flight status page for this flight to view local times or setup timezone preferences in your user account.

Time Position Orientation Groundspeed Altitude Reporting Facility
EDT Latitude Longitude Course Direction KTS MPH feet Rate Location/Type
Fri 08:46:54 AM 40.6500 -74.1833 90° East 183 211 1,100  Level New York TRACON
Fri 08:47:54 AM 40.6000 -74.2167 207° Southwest 229 264 2,700 1,800 Climbing New York TRACON
Fri 08:48:54 AM 40.6333 -74.2667 311° West 233 268 4,700 1,650 Climbing New York TRACON
Fri 08:49:00 AM 40.9819 -74.1432 North  Level FlightAware Approximate
Fri 08:49:54 AM 40.7000 -74.2667 360° North 253 291 6,000  Level New York TRACON
Fri 08:50:00 AM 41.0821 -74.1348 North  Level FlightAware Approximate
Fri 08:50:54 AM 40.7667 -74.2333 21° North 262 302 6,000  Level New York TRACON
Fri 08:51:00 AM 41.1592 -74.0921 74° East  Level FlightAware Approximate
Fri 08:51:54 AM 40.8333 -74.2167 11° North 261 300 6,000  Level New York TRACON
Fri 08:52:00 AM 41.1833 -73.9634 90° East  Level FlightAware Approximate
Fri 08:53:00 AM 40.9167 -74.2000 North 263 303 6,100  Level New York TRACON
Fri 08:53:54 AM 40.9833 -74.1833 11° North 263 303 6,100  Level New York TRACON
Fri 08:54:54 AM 41.0500 -74.1667 11° North 265 305 6,100  Level New York TRACON
Fri 08:55:54 AM 41.1333 -74.1500 North 269 310 6,100 63 Level New York TRACON
Fri 08:58:03 AM 41.1936 -73.9819 64° Northeast 265 305 6,300 667 Climbing Boston Center
Fri 08:59:03 AM 41.2158 -73.8722 75° East 270 311 8,200 1,682 Climbing Boston Center
Fri 09:00:15 AM 41.2400 -73.7650 73° East 275 316 10,000 1,727 Climbing Boston Center
Fri 09:01:15 AM 41.2686 -73.6442 72° East 281 323 12,000 1,200 Climbing Boston Center
Fri 09:02:15 AM 41.3172 -73.5678 50° Northeast 281 323 12,400 750 Climbing Boston Center
Fri 09:03:15 AM 41.3786 -73.4719 49° Northeast 299 344 13,500 900 Climbing Boston Center
Fri 09:04:15 AM 41.4314 -73.3925 48° Northeast 312 359 14,200 800 Climbing Boston Center
Fri 09:05:15 AM 41.4969 -73.2936 48° Northeast 312 359 15,100 800 Climbing Boston Center
Fri 09:06:15 AM 41.5558 -73.2194 43° Northeast 317 365 15,800 800 Climbing Boston Center
Fri 09:07:15 AM 41.6231 -73.1289 45° Northeast 317 365 16,700 750 Climbing Boston Center
Fri 09:08:15 AM 41.6981 -73.1186 North 283 326 17,300 700 Climbing Boston Center
Fri 09:09:15 AM 41.7897 -73.1361 352° North 288 331 18,100 750 Climbing Boston Center
Fri 09:10:15 AM 41.8647 -73.1453 355° North 295 339 18,800 650 Climbing Boston Center
Fri 09:11:15 AM 41.9519 -73.1658 350° North 295 339 19,400 545 Climbing Boston Center
Fri 09:12:27 AM 42.0375 -73.1781 354° North 295 339 20,000 591 Climbing Boston Center
Fri 09:13:27 AM 42.1394 -73.1961 353° North 301 346 20,700 600 Climbing Boston Center
Fri 09:14:27 AM 42.2228 -73.2139 351° North 301 346 21,200 600 Climbing Boston Center
Fri 09:15:27 AM 42.3100 -73.2261 354° North 301 346 21,900 650 Climbing Boston Center
Fri 09:16:27 AM 42.3978 -73.2300 358° North 306 352 22,500 750 Climbing Boston Center
Fri 09:17:27 AM 42.4789 -73.2422 354° North 306 352 23,400 850 Climbing Boston Center
Fri 09:18:27 AM 42.5578 -73.2658 348° North 306 352 24,200 700 Climbing Boston Center
Fri 09:19:27 AM 42.6164 -73.2386 19° North 270 311 24,800 400 Climbing Boston Center
Fri 09:20:27 AM 42.6672 -73.1292 58° Northeast 261 300 25,000 100 Climbing Boston Center
Fri 09:21:27 AM 42.7181 -72.9911 63° Northeast 300 345 25,000  Level Boston Center
Fri 09:22:27 AM 42.7664 -72.8728 61° Northeast 362 417 25,000 -350 Level Boston Center
Fri 09:23:27 AM 42.8167 -72.7600 59° Northeast 357 411 24,300 -750 Descending Boston Center
Fri 09:24:27 AM 42.8567 -72.6581 62° Northeast 362 417 23,500 -950 Descending Boston Center
Fri 09:25:27 AM 42.9150 -72.5281 58° Northeast 362 417 22,400 -1,050 Descending Boston Center
Fri 09:26:27 AM 42.9672 -72.4033 60° Northeast 361 415 21,400 -1,150 Descending Boston Center
Fri 09:27:27 AM 43.0150 -72.2811 62° Northeast 361 415 20,100 -1,750 Descending Boston Center
Fri 09:28:27 AM 43.0647 -72.1503 62° Northeast 356 410 17,900 -2,050 Descending Boston Center
Fri 09:29:27 AM 43.1083 -72.0392 62° Northeast 356 410 16,000 -2,100 Descending Boston Center
Fri 09:30:27 AM 43.1597 -71.9078 62° Northeast 356 410 13,700 -1,950 Descending Boston Center
Fri 09:31:27 AM 43.2031 -71.8019 61° Northeast 351 404 12,100 -1,250 Descending Boston Center
Fri 09:32:27 AM 43.2525 -71.6847 60° Northeast 336 387 11,200 -550 Descending Boston Center
Fri 09:33:27 AM 43.2850 -71.5958 63° Northeast 325 374 11,000 -100 Descending Boston Center
Fri 09:34:27 AM 43.3361 -71.4725 60° Northeast 314 361 11,000  Level Boston Center
Fri 09:35:39 AM 43.3850 -71.3431 63° Northeast 314 361 11,000  Level Boston Center
Fri 09:36:39 AM 43.4278 -71.2364 61° Northeast 314 361 11,000  Level Boston Center
Fri 09:37:39 AM 43.4683 -71.1300 62° Northeast 314 361 11,000  Level Boston Center
Fri 09:38:39 AM 43.5003 -71.0147 69° East 314 361 11,000 -150 Level Boston Center
Fri 09:39:39 AM 43.5322 -70.9050 68° East 314 361 10,700 -750 Descending Boston Center
Fri 09:40:39 AM 43.5600 -70.8069 69° East 278 320 9,500 -1,350 Descending Boston Center
Fri 09:41:39 AM 43.5878 -70.7175 67° East 270 311 8,000 -1,750 Descending Boston Center
Fri 09:42:39 AM 43.6197 -70.6161 66° East 264 304 6,000 -2,000 Descending Boston Center
Fri 09:43:39 AM 43.6775 -70.5914 17° North 227 261 4,000 -1,700 Descending Boston Center
Fri 09:44:39 AM 43.6825 -70.5108 85° East 194 223 2,600 -1,400 Descending Boston Center

Login

Don't have an account? Register now (free) for customized features, flight alerts, and more!